createdAt,value
2022-11-16T00:01:03.197Z,48.25
2022-11-16T00:03:33.992Z,40.38
2022-11-16T00:06:05.535Z,36.60
2022-11-16T00:08:36.657Z,38.30
2022-11-16T00:11:08.363Z,39.38
2022-11-16T00:13:38.335Z,31.60
2022-11-16T00:16:08.257Z,41.17
2022-11-16T00:18:38.531Z,37.75
2022-11-16T00:21:07.923Z,37.50
2022-11-16T00:23:38.484Z,60.17
2022-11-16T00:26:09.391Z,48.85
2022-11-16T00:28:38.257Z,51.88
2022-11-16T00:31:08.572Z,37.30
2022-11-16T00:33:39.944Z,42.60
2022-11-16T00:36:11.552Z,42.92
2022-11-16T00:38:40.876Z,41.92
2022-11-16T00:41:10.353Z,39.00
2022-11-16T00:43:39.440Z,41.65
2022-11-16T00:46:08.283Z,51.17
2022-11-16T00:48:38.627Z,42.05
2022-11-16T00:51:07.734Z,33.42
2022-11-16T00:53:37.277Z,48.85
2022-11-16T00:56:06.724Z,46.55
2022-11-16T00:58:41.581Z,45.45
2022-11-16T01:01:13.001Z,48.97
2022-11-16T01:03:43.406Z,60.90
2022-11-16T01:06:15.071Z,46.45
2022-11-16T01:08:45.243Z,45.72
2022-11-16T01:11:33.248Z,48.30
2022-11-16T01:14:03.326Z,41.03
2022-11-16T01:16:32.553Z,56.38
2022-11-16T01:19:03.885Z,51.80
2022-11-16T01:21:32.940Z,65.50
2022-11-16T01:24:01.989Z,48.42
2022-11-16T01:26:31.077Z,54.42
2022-11-16T01:29:00.392Z,45.53
2022-11-16T01:31:33.591Z,36.58
2022-11-16T01:34:06.260Z,39.17
2022-11-16T01:36:36.777Z,40.80
2022-11-16T01:39:07.048Z,36.88
2022-11-16T01:41:50.801Z,43.65
2022-11-16T01:44:57.682Z,50.20
2022-11-16T01:47:26.945Z,59.25
2022-11-16T01:50:03.664Z,47.83
2022-11-16T01:52:37.845Z,50.38
2022-11-16T01:55:07.701Z,41.67
2022-11-16T01:57:48.645Z,58.75
2022-11-16T02:00:19.335Z,57.30
2022-11-16T02:03:02.074Z,41.88
2022-11-16T02:06:17.240Z,43.55
2022-11-16T02:09:20.286Z,46.70
2022-11-16T02:12:10.023Z,36.58
2022-11-16T02:14:54.065Z,41.72
2022-11-16T02:17:34.243Z,60.42
2022-11-16T02:20:40.936Z,48.50
2022-11-16T02:23:45.895Z,37.78
2022-11-16T02:26:35.993Z,38.25
2022-11-16T02:29:21.811Z,32.83
2022-11-16T02:31:55.459Z,34.83
2022-11-16T02:34:28.177Z,28.45
2022-11-16T02:36:59.290Z,33.60
2022-11-16T02:39:33.120Z,32.50
2022-11-16T02:42:05.418Z,41.05
2022-11-16T02:44:37.642Z,39.10
2022-11-16T02:47:11.056Z,42.03
2022-11-16T02:49:46.380Z,39.17
2022-11-16T02:52:17.865Z,42.45
2022-11-16T02:54:46.722Z,44.35
2022-11-16T02:57:50.662Z,46.03
2022-11-16T03:00:27.663Z,44.33
2022-11-16T03:03:13.138Z,38.47
2022-11-16T03:05:47.739Z,37.17
2022-11-16T03:08:23.264Z,46.78
2022-11-16T03:11:15.615Z,42.53
2022-11-16T03:13:46.412Z,58.50
2022-11-16T03:16:22.373Z,57.90
2022-11-16T03:18:53.460Z,51.92
2022-11-16T03:21:29.127Z,59.35
2022-11-16T03:23:58.329Z,56.15
2022-11-16T03:26:33.329Z,61.70
2022-11-16T03:29:09.652Z,50.17
2022-11-16T03:31:47.267Z,63.97
2022-11-16T03:34:23.957Z,50.15
2022-11-16T03:36:54.222Z,55.33
2022-11-16T03:39:27.096Z,49.75
2022-11-16T03:41:58.308Z,67.80
2022-11-16T03:44:28.766Z,60.58
2022-11-16T03:46:59.048Z,61.80
2022-11-16T03:49:31.122Z,48.45
2022-11-16T03:52:00.246Z,50.58
2022-11-16T03:54:30.958Z,66.18
2022-11-16T03:56:59.858Z,59.22
2022-11-16T03:59:29.476Z,84.45
2022-11-16T04:02:00.890Z,45.70
2022-11-16T04:04:46.985Z,49.40
2022-11-16T04:07:33.284Z,53.60
2022-11-16T04:10:19.724Z,105.53
2022-11-16T04:13:06.976Z,102.93
2022-11-16T04:15:53.159Z,56.42
2022-11-16T04:18:41.017Z,67.88
2022-11-16T04:21:35.821Z,46.28
2022-11-16T04:24:14.640Z,56.03
2022-11-16T04:27:03.949Z,58.30
2022-11-16T04:29:34.165Z,58.85
2022-11-16T04:32:21.515Z,62.00
2022-11-16T04:35:09.606Z,70.72
2022-11-16T04:37:52.576Z,72.05
2022-11-16T04:40:30.269Z,67.70
2022-11-16T04:43:00.411Z,58.30
2022-11-16T04:45:51.901Z,49.97
2022-11-16T04:48:24.569Z,40.53
2022-11-16T04:50:57.900Z,54.35
2022-11-16T04:53:28.066Z,46.67
2022-11-16T04:56:12.497Z,49.53
2022-11-16T04:58:41.570Z,42.33
2022-11-16T05:01:11.965Z,57.30
2022-11-16T05:03:40.944Z,48.30
2022-11-16T05:06:11.720Z,44.75
2022-11-16T05:08:40.688Z,46.35
2022-11-16T05:11:09.710Z,49.45
2022-11-16T05:13:39.001Z,51.38
2022-11-16T05:16:09.807Z,66.75
2022-11-16T05:18:39.117Z,40.95
2022-11-16T05:21:08.002Z,70.72
2022-11-16T05:23:59.254Z,49.58
2022-11-16T05:26:32.479Z,84.00
2022-11-16T05:29:01.658Z,57.00
2022-11-16T05:31:40.120Z,58.50
2022-11-16T05:34:10.860Z,62.10
2022-11-16T05:36:39.868Z,72.30
2022-11-16T05:39:12.429Z,68.97
2022-11-16T05:41:43.488Z,54.55
2022-11-16T05:44:12.689Z,48.28
2022-11-16T05:46:41.748Z,41.92
2022-11-16T05:49:12.040Z,41.25
2022-11-16T05:51:44.951Z,58.63
2022-11-16T05:54:18.749Z,71.93
2022-11-16T05:56:48.304Z,46.15
2022-11-16T05:59:19.479Z,60.35
2022-11-16T06:01:52.200Z,57.90
2022-11-16T06:04:27.117Z,79.53
2022-11-16T06:06:56.827Z,58.13
2022-11-16T06:09:32.611Z,53.15
2022-11-16T06:12:09.356Z,52.05
2022-11-16T06:14:38.430Z,51.35
2022-11-16T06:17:07.984Z,42.67
2022-11-16T06:19:36.957Z,50.25
2022-11-16T06:22:05.815Z,62.88
2022-11-16T06:24:37.150Z,39.25
2022-11-16T06:27:06.012Z,36.72
2022-11-16T06:29:36.916Z,43.08
2022-11-16T06:32:06.399Z,41.28
2022-11-16T06:34:36.687Z,62.65
2022-11-16T06:37:05.921Z,44.45
2022-11-16T06:39:37.228Z,52.45
2022-11-16T06:42:06.388Z,48.90
2022-11-16T06:44:36.822Z,33.90
2022-11-16T06:47:07.791Z,41.80
2022-11-16T06:49:37.504Z,41.65
2022-11-16T06:52:12.837Z,53.47
2022-11-16T06:54:43.600Z,160.32
2022-11-16T06:57:13.697Z,171.95
2022-11-16T06:59:42.592Z,123.80
2022-11-16T07:02:12.067Z,87.82
2022-11-16T07:04:41.900Z,89.82
2022-11-16T07:07:10.905Z,72.97
2022-11-16T07:09:40.683Z,79.15
2022-11-16T07:12:11.659Z,68.50
2022-11-16T07:14:42.888Z,64.40
2022-11-16T07:17:13.315Z,48.17
2022-11-16T07:19:42.243Z,95.78
2022-11-16T07:22:11.154Z,67.25
2022-11-16T07:24:40.571Z,86.25
2022-11-16T07:27:12.505Z,88.95
2022-11-16T07:29:45.914Z,64.93
2022-11-16T07:32:42.606Z,78.85
2022-11-16T07:35:16.960Z,66.22
2022-11-16T07:37:45.865Z,67.72
2022-11-16T07:40:17.393Z,63.85
2022-11-16T07:42:49.425Z,50.30
2022-11-16T07:45:36.895Z,78.35
2022-11-16T07:48:09.570Z,83.18
2022-11-16T07:51:01.995Z,65.13
2022-11-16T07:53:33.259Z,64.90
2022-11-16T07:56:03.339Z,56.13
2022-11-16T07:58:37.022Z,72.75
2022-11-16T08:01:07.886Z,71.97
2022-11-16T08:03:37.932Z,58.08
2022-11-16T08:06:12.372Z,58.03
2022-11-16T08:08:41.515Z,67.32
2022-11-16T08:11:12.214Z,62.35
2022-11-16T08:13:43.057Z,50.45
2022-11-16T08:16:14.923Z,52.60
2022-11-16T08:18:46.020Z,45.03
2022-11-16T08:21:18.754Z,41.10
2022-11-16T08:23:48.764Z,58.20
2022-11-16T08:26:22.022Z,48.03
2022-11-16T08:29:00.326Z,38.03
2022-11-16T08:31:34.973Z,43.05
2022-11-16T08:34:14.189Z,44.47
2022-11-16T08:36:46.918Z,36.80
2022-11-16T08:39:16.041Z,30.40
2022-11-16T08:41:45.726Z,32.95
2022-11-16T08:44:16.713Z,26.15
2022-11-16T08:46:48.661Z,29.67
2022-11-16T08:49:28.966Z,30.70
2022-11-16T08:51:58.253Z,27.50
2022-11-16T08:54:29.511Z,26.45
2022-11-16T08:56:59.081Z,27.25
2022-11-16T08:59:29.624Z,26.15
2022-11-16T09:02:04.175Z,28.13
2022-11-16T09:04:36.993Z,23.92
2022-11-16T09:07:06.631Z,25.42
2022-11-16T09:09:35.548Z,30.15
2022-11-16T09:12:04.456Z,30.85
2022-11-16T09:14:34.691Z,33.60
2022-11-16T09:17:04.169Z,28.73
2022-11-16T09:19:33.023Z,29.90
2022-11-16T09:22:02.052Z,23.00
2022-11-16T09:24:31.502Z,18.38
2022-11-16T09:27:02.054Z,21.48
2022-11-16T09:29:31.168Z,23.10
2022-11-16T09:32:02.263Z,20.60
2022-11-16T09:34:31.159Z,26.20
2022-11-16T09:36:59.989Z,24.65
2022-11-16T09:42:34.644Z,23.35
2022-11-16T09:45:08.463Z,24.60
2022-11-16T09:47:49.166Z,19.75
2022-11-16T09:53:27.032Z,21.23
2022-11-16T09:55:59.785Z,23.33
2022-11-16T09:58:32.989Z,22.92
2022-11-16T10:01:07.411Z,25.92
2022-11-16T10:03:44.420Z,20.35
2022-11-16T10:06:22.100Z,21.13
2022-11-16T10:08:52.895Z,22.23
2022-11-16T10:11:42.101Z,18.27
2022-11-16T10:14:32.387Z,26.27
2022-11-16T10:17:07.720Z,17.67
2022-11-16T10:22:24.158Z,21.47
2022-11-16T10:24:58.923Z,25.13
2022-11-16T10:27:39.763Z,21.25
2022-11-16T10:30:12.225Z,18.38
2022-11-16T10:32:48.858Z,19.45
2022-11-16T10:35:25.341Z,14.27
2022-11-16T10:37:54.277Z,19.33
2022-11-16T10:40:27.008Z,20.27
2022-11-16T10:43:06.854Z,18.52
2022-11-16T10:45:40.950Z,23.17
2022-11-16T10:48:20.821Z,19.73
2022-11-16T10:50:53.700Z,28.23
2022-11-16T10:53:30.995Z,25.95
2022-11-16T10:56:12.729Z,17.10
2022-11-16T10:59:00.225Z,19.52
2022-11-16T11:01:32.802Z,18.35
2022-11-16T11:04:19.700Z,21.98
2022-11-16T11:06:52.578Z,15.98
2022-11-16T11:09:26.748Z,15.88
2022-11-16T11:12:21.115Z,15.60
2022-11-16T11:15:01.957Z,19.42
2022-11-16T11:17:32.311Z,17.40
2022-11-16T11:20:04.218Z,21.13
2022-11-16T11:22:42.575Z,9.10
2022-11-16T11:25:21.634Z,16.00
2022-11-16T11:27:51.302Z,17.63
2022-11-16T11:30:21.651Z,16.85
2022-11-16T11:32:52.923Z,13.18
2022-11-16T11:35:26.458Z,15.88
2022-11-16T11:38:04.781Z,38.45
2022-11-16T11:43:24.857Z,26.42
2022-11-16T11:45:59.954Z,34.47
2022-11-16T11:48:36.596Z,25.25
2022-11-16T11:51:12.822Z,21.85
2022-11-16T11:53:51.633Z,14.73
2022-11-16T11:56:20.869Z,25.48
2022-11-16T11:58:51.695Z,13.25
2022-11-16T12:01:44.544Z,19.48
2022-11-16T12:04:49.439Z,23.48
2022-11-16T12:07:31.445Z,13.70
2022-11-16T12:10:13.537Z,21.38
2022-11-16T12:12:55.803Z,22.00
2022-11-16T12:15:44.252Z,17.77
2022-11-16T12:18:31.008Z,17.75
2022-11-16T12:21:06.247Z,15.15
2022-11-16T12:26:26.748Z,20.38
2022-11-16T12:29:11.164Z,18.40
2022-11-16T12:32:08.631Z,21.92
2022-11-16T12:34:54.592Z,29.33
2022-11-16T12:37:31.810Z,24.08
2022-11-16T12:40:21.431Z,19.33
2022-11-16T12:43:00.834Z,20.25
2022-11-16T12:45:46.138Z,19.77
2022-11-16T12:48:32.689Z,18.55
2022-11-16T12:51:09.756Z,14.90
2022-11-16T12:54:00.294Z,22.75
2022-11-16T12:56:44.622Z,22.00
2022-11-16T12:59:49.664Z,26.45
2022-11-16T13:02:31.182Z,35.03
2022-11-16T13:05:06.344Z,19.00
2022-11-16T13:07:43.882Z,36.75
2022-11-16T13:10:19.705Z,22.60
2022-11-16T13:12:55.884Z,24.17
2022-11-16T13:15:37.371Z,33.00
2022-11-16T13:18:09.164Z,39.85
2022-11-16T13:20:46.941Z,33.72
2022-11-16T13:23:21.258Z,40.13
2022-11-16T13:25:54.922Z,32.22
2022-11-16T13:28:33.811Z,44.42
2022-11-16T13:31:13.608Z,49.58
2022-11-16T13:33:50.721Z,41.15
2022-11-16T13:36:46.203Z,40.72
2022-11-16T13:39:22.219Z,48.65
2022-11-16T13:41:53.129Z,35.03
2022-11-16T13:44:31.056Z,31.35
2022-11-16T13:47:05.315Z,34.63
2022-11-16T13:49:37.449Z,34.60
2022-11-16T13:52:31.550Z,39.42
2022-11-16T13:55:16.768Z,27.92
2022-11-16T13:57:53.486Z,42.13
2022-11-16T14:00:25.464Z,47.42
2022-11-16T14:03:27.642Z,40.92
2022-11-16T14:05:56.634Z,24.25
2022-11-16T14:08:51.107Z,21.17
2022-11-16T14:11:36.016Z,28.15
2022-11-16T14:14:07.237Z,23.55
2022-11-16T14:16:47.831Z,22.75
2022-11-16T14:19:55.134Z,23.98
2022-11-16T14:22:39.659Z,21.60
2022-11-16T14:25:19.094Z,20.30
2022-11-16T14:27:55.886Z,23.13
2022-11-16T14:30:27.174Z,20.33
2022-11-16T14:32:58.574Z,58.00
2022-11-16T14:35:33.862Z,57.65
2022-11-16T14:40:35.713Z,49.47
2022-11-16T14:43:16.863Z,48.97
2022-11-16T14:45:50.260Z,39.40
2022-11-16T14:48:21.626Z,51.05
2022-11-16T14:51:05.109Z,59.22
2022-11-16T14:53:36.351Z,75.20
2022-11-16T14:56:10.990Z,91.05
2022-11-16T14:58:40.699Z,78.22
2022-11-16T15:01:15.322Z,73.93
2022-11-16T15:03:53.723Z,65.72
2022-11-16T15:06:26.208Z,64.20
2022-11-16T15:08:59.400Z,77.22
2022-11-16T15:11:44.784Z,84.35
2022-11-16T15:14:19.420Z,66.60
2022-11-16T15:16:53.056Z,74.22
2022-11-16T15:19:22.814Z,82.32
2022-11-16T15:21:55.061Z,55.90
2022-11-16T15:24:30.965Z,63.63
2022-11-16T15:27:11.740Z,78.97
2022-11-16T15:29:40.846Z,68.35
2022-11-16T15:32:17.885Z,72.05
2022-11-16T15:34:51.194Z,83.43
2022-11-16T15:37:30.051Z,81.30
2022-11-16T15:40:00.055Z,79.47
2022-11-16T15:42:30.193Z,73.50
2022-11-16T15:45:15.524Z,73.30
2022-11-16T15:47:46.556Z,87.85
2022-11-16T15:50:19.424Z,79.45
2022-11-16T15:52:55.096Z,80.70
2022-11-16T15:55:35.696Z,96.18
2022-11-16T15:58:15.530Z,97.25
2022-11-16T16:00:49.182Z,99.32
2022-11-16T16:03:22.736Z,108.55
2022-11-16T16:05:52.820Z,94.28
2022-11-16T16:08:32.421Z,118.90
2022-11-16T16:11:10.820Z,106.45
2022-11-16T16:13:41.934Z,90.18
2022-11-16T16:16:24.118Z,112.22
2022-11-16T16:18:54.589Z,96.50
2022-11-16T16:21:24.367Z,111.55
2022-11-16T16:23:56.637Z,117.10
2022-11-16T16:26:25.648Z,75.70
2022-11-16T16:28:54.478Z,85.22
2022-11-16T16:31:23.413Z,86.25
2022-11-16T16:33:52.314Z,90.25
2022-11-16T16:36:21.343Z,100.30
2022-11-16T16:38:50.417Z,121.55
2022-11-16T16:41:24.464Z,80.80
2022-11-16T16:43:53.755Z,99.40
2022-11-16T16:46:22.825Z,99.72
2022-11-16T16:48:51.718Z,106.22
2022-11-16T16:51:20.616Z,81.70
2022-11-16T16:53:49.457Z,97.28
2022-11-16T16:56:19.958Z,126.20
2022-11-16T16:58:50.291Z,120.05
2022-11-16T17:01:19.371Z,109.13
2022-11-16T17:03:48.371Z,96.07
2022-11-16T17:06:17.248Z,112.10
2022-11-16T17:08:46.789Z,106.43
2022-11-16T17:11:17.889Z,137.25
2022-11-16T17:13:46.769Z,126.60
2022-11-16T17:16:17.070Z,106.70
2022-11-16T17:18:46.331Z,107.60
2022-11-16T17:21:15.309Z,99.93
2022-11-16T17:23:44.121Z,147.23
2022-11-16T17:26:13.148Z,135.80
2022-11-16T17:28:42.009Z,166.85
2022-11-16T17:31:12.690Z,154.35
2022-11-16T17:33:43.883Z,142.88
2022-11-16T17:36:14.147Z,145.60
2022-11-16T17:38:43.062Z,110.70
2022-11-16T17:41:13.824Z,117.82
2022-11-16T17:43:44.450Z,118.75
2022-11-16T17:46:15.596Z,106.93
2022-11-16T17:48:47.478Z,105.55
2022-11-16T17:51:17.974Z,96.25
2022-11-16T17:53:47.022Z,97.32
2022-11-16T17:56:18.544Z,81.30
2022-11-16T17:58:47.639Z,83.82
2022-11-16T18:01:16.945Z,77.82
2022-11-16T18:03:47.282Z,94.70
2022-11-16T18:06:18.561Z,95.28
2022-11-16T18:08:48.031Z,109.82
2022-11-16T18:11:18.856Z,112.85
2022-11-16T18:13:48.194Z,118.32
2022-11-16T18:16:19.090Z,105.40
2022-11-16T18:18:50.390Z,99.10
2022-11-16T18:21:20.951Z,89.32
2022-11-16T18:23:50.042Z,163.95
2022-11-16T18:26:21.151Z,129.98
2022-11-16T18:28:51.024Z,97.32
2022-11-16T18:31:21.290Z,125.88
2022-11-16T18:33:52.514Z,65.30
2022-11-16T18:36:22.541Z,55.03
2022-11-16T18:38:51.706Z,55.78
2022-11-16T18:41:21.907Z,69.50
2022-11-16T18:43:52.702Z,37.88
2022-11-16T18:46:22.663Z,42.33
2022-11-16T18:48:53.333Z,55.10
2022-11-16T18:51:23.393Z,46.20
2022-11-16T18:53:52.300Z,56.30
2022-11-16T18:56:21.881Z,56.38
2022-11-16T18:58:52.687Z,55.28
2022-11-16T19:01:24.170Z,57.15
2022-11-16T19:03:55.729Z,70.28
2022-11-16T19:06:25.461Z,71.43
2022-11-16T19:08:59.392Z,64.43
2022-11-16T19:11:29.475Z,88.07
2022-11-16T19:14:01.187Z,72.90
2022-11-16T19:16:30.486Z,84.00
2022-11-16T19:19:02.069Z,130.18
2022-11-16T19:21:31.210Z,141.95
2022-11-16T19:24:00.113Z,92.05
2022-11-16T19:26:29.683Z,69.80
2022-11-16T19:28:59.445Z,75.10
2022-11-16T19:31:30.337Z,78.60
2022-11-16T19:34:02.023Z,57.05
2022-11-16T19:36:32.159Z,67.28
2022-11-16T19:39:01.141Z,55.83
2022-11-16T19:41:30.213Z,53.75
2022-11-16T19:44:02.149Z,84.63
2022-11-16T19:46:33.144Z,75.60
2022-11-16T19:49:04.171Z,58.20
2022-11-16T19:51:34.492Z,59.80
2022-11-16T19:54:04.416Z,54.85
2022-11-16T19:56:33.272Z,54.35
2022-11-16T19:59:02.256Z,50.38
2022-11-16T20:01:31.271Z,53.30
2022-11-16T20:04:02.196Z,68.75
2022-11-16T20:06:34.309Z,73.93
2022-11-16T20:09:08.750Z,62.92
2022-11-16T20:11:39.134Z,72.20
2022-11-16T20:14:09.933Z,61.00
2022-11-16T20:16:42.068Z,72.53
2022-11-16T20:19:11.731Z,82.32
2022-11-16T20:21:43.595Z,82.72
2022-11-16T20:24:14.826Z,65.18
2022-11-16T20:26:45.784Z,87.43
2022-11-16T20:29:15.665Z,69.95
2022-11-16T20:31:46.080Z,82.00
2022-11-16T20:34:16.748Z,68.50
2022-11-16T20:36:49.669Z,62.92
2022-11-16T20:39:20.256Z,67.18
2022-11-16T20:41:49.604Z,77.43
2022-11-16T20:44:22.102Z,66.00
2022-11-16T20:46:52.505Z,65.25
2022-11-16T20:49:21.592Z,80.75
2022-11-16T20:51:51.920Z,91.65
2022-11-16T20:54:20.823Z,73.45
2022-11-16T20:56:50.585Z,63.92
2022-11-16T20:59:19.553Z,64.35
2022-11-16T21:01:48.886Z,57.97
2022-11-16T21:04:18.062Z,89.25
2022-11-16T21:06:46.987Z,65.82
2022-11-16T21:09:22.518Z,75.40
2022-11-16T21:12:09.069Z,62.40
2022-11-16T21:14:37.998Z,51.38
2022-11-16T21:17:06.878Z,46.55
2022-11-16T21:19:35.734Z,47.20
2022-11-16T21:22:04.594Z,45.75
2022-11-16T21:24:34.890Z,52.00
2022-11-16T21:27:03.813Z,37.13
2022-11-16T21:29:32.688Z,38.38
2022-11-16T21:32:01.656Z,46.83
2022-11-16T21:34:34.631Z,48.60
2022-11-16T21:37:06.166Z,40.63
2022-11-16T21:39:36.423Z,41.88
2022-11-16T21:42:05.892Z,46.22
2022-11-16T21:44:42.040Z,58.00
2022-11-16T21:47:11.504Z,55.58
2022-11-16T21:50:00.923Z,47.10
2022-11-16T21:52:30.060Z,50.13
2022-11-16T21:55:03.016Z,48.78
2022-11-16T21:57:32.022Z,18.67
2022-11-16T22:00:02.005Z,21.67
2022-11-16T22:02:40.382Z,29.40
2022-11-16T22:05:27.942Z,25.80
2022-11-16T22:07:56.821Z,24.92
2022-11-16T22:10:27.044Z,29.92
2022-11-16T22:12:55.896Z,27.88
2022-11-16T22:15:24.771Z,35.03
2022-11-16T22:17:53.616Z,32.15
2022-11-16T22:20:22.619Z,22.98
2022-11-16T22:22:51.445Z,24.48
2022-11-16T22:25:20.489Z,24.13
2022-11-16T22:28:19.240Z,24.75
2022-11-16T22:30:39.745Z,32.10
2022-11-16T22:33:09.086Z,24.02
2022-11-16T22:35:38.604Z,32.08
2022-11-16T22:38:07.436Z,30.23
2022-11-16T22:40:36.330Z,29.08
2022-11-16T22:43:06.572Z,28.00
2022-11-16T22:45:35.437Z,33.67
2022-11-16T22:48:04.445Z,26.88
2022-11-16T22:50:33.285Z,36.28
2022-11-16T22:53:02.148Z,36.75
2022-11-16T22:55:31.180Z,39.17
2022-11-16T22:58:00.053Z,42.75
2022-11-16T23:00:30.820Z,56.60
2022-11-16T23:02:59.807Z,52.33
2022-11-16T23:05:28.679Z,50.92
2022-11-16T23:07:58.311Z,46.97
2022-11-16T23:10:27.150Z,42.08
2022-11-16T23:13:13.480Z,42.75
2022-11-16T23:15:52.866Z,39.30
2022-11-16T23:18:21.690Z,42.80
2022-11-16T23:21:08.063Z,42.45
2022-11-16T23:23:54.229Z,44.53
2022-11-16T23:26:42.164Z,49.72
2022-11-16T23:29:12.473Z,56.10
2022-11-16T23:31:42.711Z,57.35
2022-11-16T23:34:11.564Z,52.78
2022-11-16T23:36:40.598Z,48.88
2022-11-16T23:39:09.689Z,57.30
2022-11-16T23:41:55.791Z,45.63
2022-11-16T23:44:24.705Z,51.22
2022-11-16T23:46:54.929Z,43.13
2022-11-16T23:49:23.803Z,39.60
2022-11-16T23:51:52.675Z,47.53
2022-11-16T23:54:21.556Z,50.08
2022-11-16T23:56:50.571Z,51.60
2022-11-16T23:59:19.465Z,60.88
